createdAt,value
2019-04-27T00:00:39.092Z,45.94
2019-04-27T00:03:26.031Z,45.82
2019-04-27T00:06:08.471Z,45.00
2019-04-27T00:08:54.081Z,45.65
2019-04-27T00:11:37.441Z,44.75
2019-04-27T00:14:05.177Z,45.54
2019-04-27T00:16:40.496Z,44.47
2019-04-27T00:19:13.200Z,44.15
2019-04-27T00:21:47.165Z,43.92
2019-04-27T00:24:18.418Z,44.52
2019-04-27T00:26:47.874Z,45.45
2019-04-27T00:29:17.654Z,44.83
2019-04-27T00:31:47.568Z,45.66
2019-04-27T00:34:17.622Z,45.24
2019-04-27T00:37:01.342Z,46.04
2019-04-27T00:39:44.917Z,43.70
2019-04-27T00:42:16.344Z,44.15
2019-04-27T00:44:45.823Z,44.57
2019-04-27T00:47:15.342Z,44.30
2019-04-27T00:49:44.872Z,44.40
2019-04-27T00:52:14.333Z,43.77
2019-04-27T00:54:44.292Z,44.43
2019-04-27T00:57:33.723Z,42.56
2019-04-27T01:00:05.183Z,43.21
2019-04-27T01:02:43.519Z,43.40
2019-04-27T01:05:14.692Z,43.55
2019-04-27T01:07:44.163Z,43.25
2019-04-27T01:10:13.686Z,44.22
2019-04-27T01:12:43.125Z,44.31
2019-04-27T01:15:13.770Z,44.30
2019-04-27T01:17:44.590Z,43.45
2019-04-27T01:20:14.112Z,43.97
2019-04-27T01:22:43.572Z,45.14
2019-04-27T01:25:13.608Z,44.00
2019-04-27T01:27:53.758Z,44.28
2019-04-27T01:33:09.834Z,45.47
2019-04-27T01:35:40.351Z,46.52
2019-04-27T01:38:09.735Z,47.69
2019-04-27T01:40:39.126Z,50.11
2019-04-27T01:43:09.179Z,51.34
2019-04-27T01:45:39.203Z,50.81
2019-04-27T01:48:22.159Z,51.97
2019-04-27T01:50:39.645Z,52.64
2019-04-27T01:53:09.221Z,55.11
2019-04-27T01:55:40.708Z,55.38
2019-04-27T01:58:10.987Z,55.71
2019-04-27T02:00:59.504Z,57.15
2019-04-27T02:03:46.431Z,58.24
2019-04-27T02:06:15.994Z,57.79
2019-04-27T02:08:45.638Z,61.21
2019-04-27T02:11:15.171Z,60.07
2019-04-27T02:13:44.566Z,63.15
2019-04-27T02:16:14.195Z,64.81
2019-04-27T02:18:43.650Z,63.86
2019-04-27T02:21:13.126Z,63.86
2019-04-27T02:23:42.506Z,62.71
2019-04-27T02:26:11.900Z,63.46
2019-04-27T02:28:42.928Z,62.02
2019-04-27T02:31:19.765Z,59.82
2019-04-27T02:33:59.411Z,59.82
2019-04-27T02:36:30.349Z,59.29
2019-04-27T02:38:59.676Z,60.73
2019-04-27T02:41:29.800Z,59.08
2019-04-27T02:44:15.906Z,57.76
2019-04-27T02:46:45.367Z,60.08
2019-04-27T02:49:14.817Z,59.67
2019-04-27T02:51:49.594Z,60.79
2019-04-27T02:54:20.435Z,57.64
2019-04-27T02:56:52.783Z,58.09
2019-04-27T02:59:22.133Z,57.94
2019-04-27T03:01:53.649Z,58.36
2019-04-27T03:04:23.093Z,57.15
2019-04-27T03:06:52.472Z,56.73
2019-04-27T03:09:21.949Z,55.76
2019-04-27T03:11:51.892Z,56.50
2019-04-27T03:14:40.329Z,56.28
2019-04-27T03:17:26.825Z,55.81
2019-04-27T03:20:13.826Z,56.92
2019-04-27T03:22:44.864Z,56.19
2019-04-27T03:25:16.823Z,55.69
2019-04-27T03:27:53.956Z,56.88
2019-04-27T03:30:24.033Z,55.74
2019-04-27T03:32:56.642Z,55.65
2019-04-27T03:35:24.750Z,53.62
2019-04-27T03:37:54.194Z,54.02
2019-04-27T03:40:23.655Z,55.29
2019-04-27T03:42:54.754Z,53.31
2019-04-27T03:45:24.497Z,54.77
2019-04-27T03:47:54.350Z,55.13
2019-04-27T03:50:25.405Z,54.38
2019-04-27T03:53:10.315Z,55.75
2019-04-27T03:55:42.890Z,55.31
2019-04-27T03:58:21.726Z,54.73
2019-04-27T04:00:52.999Z,53.78
2019-04-27T04:03:22.461Z,54.56
2019-04-27T04:05:52.204Z,54.74
2019-04-27T04:08:21.983Z,53.36
2019-04-27T04:10:53.435Z,54.05
2019-04-27T04:13:24.768Z,52.30
2019-04-27T04:16:00.260Z,52.46
2019-04-27T04:18:31.791Z,52.99
2019-04-27T04:21:01.381Z,52.19
2019-04-27T04:23:30.777Z,53.47
2019-04-27T04:26:00.171Z,52.64
2019-04-27T04:28:29.718Z,52.19
2019-04-27T04:31:00.469Z,50.68
2019-04-27T04:33:30.458Z,51.39
2019-04-27T04:36:00.034Z,51.79
2019-04-27T04:38:30.520Z,52.02
2019-04-27T04:41:10.880Z,51.75
2019-04-27T04:43:41.900Z,51.24
2019-04-27T04:46:29.810Z,51.24
2019-04-27T04:49:00.336Z,50.76
2019-04-27T04:51:30.487Z,50.92
2019-04-27T04:54:00.903Z,50.64
2019-04-27T04:56:30.352Z,51.31
2019-04-27T04:59:00.246Z,50.17
2019-04-27T05:01:30.051Z,50.90
2019-04-27T05:03:59.529Z,50.21
2019-04-27T05:06:29.322Z,49.58
2019-04-27T05:08:59.530Z,50.42
2019-04-27T05:11:29.774Z,51.27
2019-04-27T05:14:01.466Z,52.08
2019-04-27T05:16:32.915Z,52.41
2019-04-27T05:19:02.416Z,52.25
2019-04-27T05:21:33.426Z,49.14
2019-04-27T05:24:02.818Z,50.14
2019-04-27T05:26:32.202Z,51.26
2019-04-27T05:29:01.593Z,50.37
2019-04-27T05:31:31.043Z,49.18
2019-04-27T05:34:00.436Z,50.68
2019-04-27T05:36:29.819Z,50.61
2019-04-27T05:38:59.718Z,51.24
2019-04-27T05:41:31.131Z,49.18
2019-04-27T05:44:03.314Z,50.51
2019-04-27T05:46:52.670Z,48.58
2019-04-27T05:49:29.364Z,46.37
2019-04-27T05:51:59.511Z,46.57
2019-04-27T05:54:29.399Z,43.91
2019-04-27T05:56:59.259Z,43.92
2019-04-27T05:59:29.845Z,44.25
2019-04-27T06:01:59.572Z,44.83
2019-04-27T06:04:30.256Z,43.38
2019-04-27T06:07:01.053Z,43.67
2019-04-27T06:09:30.493Z,43.49
2019-04-27T06:11:59.873Z,42.00
2019-04-27T06:14:29.399Z,43.01
2019-04-27T06:16:59.652Z,44.60
2019-04-27T06:19:29.259Z,43.65
2019-04-27T06:22:00.981Z,45.17
2019-04-27T06:24:30.642Z,45.44
2019-04-27T06:27:00.026Z,45.85
2019-04-27T06:29:29.414Z,47.40
2019-04-27T06:31:59.337Z,46.64
2019-04-27T06:34:31.013Z,45.94
2019-04-27T06:37:00.107Z,44.73
2019-04-27T06:39:29.931Z,44.86
2019-04-27T06:42:01.257Z,43.53
2019-04-27T06:44:30.596Z,44.15
2019-04-27T06:46:59.973Z,45.54
2019-04-27T06:49:29.536Z,42.54
2019-04-27T06:51:58.928Z,43.01
2019-04-27T06:54:29.139Z,41.62
2019-04-27T06:56:59.258Z,42.39
2019-04-27T06:59:29.062Z,42.13
2019-04-27T07:02:00.925Z,42.06
2019-04-27T07:04:30.384Z,42.53
2019-04-27T07:07:01.659Z,41.02
2019-04-27T07:09:30.859Z,40.09
2019-04-27T07:12:00.239Z,41.74
2019-04-27T07:14:29.643Z,41.81
2019-04-27T07:16:59.293Z,39.90
2019-04-27T07:19:30.205Z,42.15
2019-04-27T07:21:59.642Z,40.88
2019-04-27T07:24:29.340Z,38.76
2019-04-27T07:26:59.690Z,40.54
2019-04-27T07:29:29.574Z,39.81
2019-04-27T07:31:59.725Z,39.60
2019-04-27T07:34:30.530Z,41.25
2019-04-27T07:37:00.050Z,41.22
2019-04-27T07:39:29.528Z,38.08
2019-04-27T07:41:58.904Z,41.18
2019-04-27T07:44:41.819Z,38.94
2019-04-27T07:47:15.306Z,36.51
2019-04-27T07:49:45.528Z,35.31
2019-04-27T07:52:14.913Z,31.65
2019-04-27T07:54:44.432Z,30.50
2019-04-27T07:57:13.824Z,31.24
2019-04-27T07:59:43.269Z,29.54
2019-04-27T08:02:12.661Z,33.52
2019-04-27T08:04:42.061Z,34.23
2019-04-27T08:07:11.433Z,28.86
2019-04-27T08:09:40.823Z,28.57
2019-04-27T08:12:10.942Z,28.88
2019-04-27T08:14:41.436Z,29.33
2019-04-27T08:17:10.825Z,31.07
2019-04-27T08:19:40.275Z,27.18
2019-04-27T08:22:09.846Z,27.91
2019-04-27T08:24:39.687Z,28.21
2019-04-27T08:27:17.349Z,28.11
2019-04-27T08:30:04.635Z,27.47
2019-04-27T08:32:44.883Z,29.54
2019-04-27T08:35:14.499Z,29.13
2019-04-27T08:37:43.983Z,31.58
2019-04-27T08:40:14.772Z,29.32
2019-04-27T08:42:44.254Z,26.26
2019-04-27T08:45:13.776Z,26.25
2019-04-27T08:47:43.242Z,27.10
2019-04-27T08:50:13.824Z,26.19
2019-04-27T08:52:43.208Z,27.57
2019-04-27T08:55:13.035Z,27.81
2019-04-27T08:57:42.415Z,30.37
2019-04-27T09:00:12.356Z,25.90
2019-04-27T09:02:47.058Z,28.07
2019-04-27T09:05:13.214Z,26.11
2019-04-27T09:07:47.276Z,27.01
2019-04-27T09:10:18.808Z,28.82
2019-04-27T09:13:05.767Z,30.66
2019-04-27T09:15:39.431Z,28.08
2019-04-27T09:18:09.186Z,29.86
2019-04-27T09:20:51.910Z,30.31
2019-04-27T09:23:21.287Z,31.29
2019-04-27T09:25:50.676Z,28.34
2019-04-27T09:28:21.801Z,27.89
2019-04-27T09:30:51.287Z,27.23
2019-04-27T09:33:22.285Z,29.37
2019-04-27T09:35:51.826Z,26.18
2019-04-27T09:38:21.206Z,29.36
2019-04-27T09:40:50.597Z,29.95
2019-04-27T09:43:19.978Z,25.07
2019-04-27T09:45:49.386Z,28.43
2019-04-27T09:48:18.899Z,30.45
2019-04-27T09:50:48.271Z,30.96
2019-04-27T09:53:17.652Z,31.93
2019-04-27T09:55:47.048Z,30.39
2019-04-27T09:58:18.513Z,26.12
2019-04-27T10:00:49.415Z,26.52
2019-04-27T10:03:18.939Z,25.35
2019-04-27T10:05:48.328Z,29.85
2019-04-27T10:08:17.706Z,26.40
2019-04-27T10:10:47.992Z,30.99
2019-04-27T10:13:17.501Z,30.22
2019-04-27T10:15:46.888Z,30.33
2019-04-27T10:18:16.408Z,26.24
2019-04-27T10:20:58.174Z,26.85
2019-04-27T10:23:16.970Z,32.20
2019-04-27T10:25:46.844Z,32.68
2019-04-27T10:28:16.217Z,31.57
2019-04-27T10:30:45.842Z,30.71
2019-04-27T10:33:16.072Z,32.68
2019-04-27T10:35:47.211Z,30.13
2019-04-27T10:38:17.665Z,29.63
2019-04-27T10:40:47.029Z,30.58
2019-04-27T10:43:16.439Z,30.67
2019-04-27T10:45:46.405Z,27.12
2019-04-27T10:48:16.304Z,28.21
2019-04-27T10:50:46.929Z,26.35
2019-04-27T10:53:16.878Z,25.63
2019-04-27T10:55:47.450Z,24.78
2019-04-27T10:58:16.896Z,26.68
2019-04-27T11:00:50.931Z,23.30
2019-04-27T11:03:21.948Z,28.33
2019-04-27T11:06:05.912Z,23.27
2019-04-27T11:08:36.430Z,23.59
2019-04-27T11:11:06.301Z,22.80
2019-04-27T11:13:35.896Z,26.61
2019-04-27T11:16:06.844Z,24.31
2019-04-27T11:18:36.235Z,24.69
2019-04-27T11:21:05.813Z,24.23
2019-04-27T11:23:35.923Z,20.91
2019-04-27T11:26:07.464Z,21.88
2019-04-27T11:28:37.497Z,29.48
2019-04-27T11:31:07.919Z,20.74
2019-04-27T11:33:37.306Z,23.58
2019-04-27T11:36:17.242Z,26.07
2019-04-27T11:38:48.708Z,26.59
2019-04-27T11:41:18.457Z,27.94
2019-04-27T11:43:47.855Z,28.42
2019-04-27T11:46:17.248Z,29.58
2019-04-27T11:48:47.063Z,29.73
2019-04-27T11:51:17.421Z,29.57
2019-04-27T11:53:46.956Z,29.19
2019-04-27T11:56:17.733Z,29.27
2019-04-27T11:58:48.863Z,28.88
2019-04-27T12:01:18.269Z,31.24
2019-04-27T12:03:47.661Z,30.29
2019-04-27T12:06:17.023Z,31.45
2019-04-27T12:08:46.508Z,32.04
2019-04-27T12:11:16.774Z,29.97
2019-04-27T12:13:46.966Z,25.52
2019-04-27T12:16:17.640Z,28.24
2019-04-27T12:18:49.232Z,31.55
2019-04-27T12:21:19.616Z,29.19
2019-04-27T12:23:48.987Z,31.18
2019-04-27T12:26:31.813Z,30.53
2019-04-27T12:29:02.831Z,30.39
2019-04-27T12:31:42.870Z,36.17
2019-04-27T12:34:11.043Z,30.44
2019-04-27T12:36:40.435Z,31.20
2019-04-27T12:39:11.927Z,31.60
2019-04-27T12:41:42.544Z,31.86
2019-04-27T12:44:11.952Z,33.28
2019-04-27T12:46:41.339Z,32.18
2019-04-27T12:49:10.961Z,32.55
2019-04-27T12:51:40.418Z,32.39
2019-04-27T12:54:11.434Z,29.41
2019-04-27T12:56:42.471Z,27.82
2019-04-27T12:59:16.048Z,28.03
2019-04-27T13:01:46.250Z,27.62
2019-04-27T13:04:15.712Z,28.17
2019-04-27T13:06:46.880Z,27.18
2019-04-27T13:09:17.368Z,28.63
2019-04-27T13:11:46.756Z,28.50
2019-04-27T13:14:16.392Z,29.00
2019-04-27T13:16:47.468Z,28.27
2019-04-27T13:19:17.063Z,29.29
2019-04-27T13:21:47.047Z,28.64
2019-04-27T13:24:16.419Z,30.67
2019-04-27T13:26:45.800Z,29.53
2019-04-27T13:29:16.633Z,29.57
2019-04-27T13:31:46.129Z,29.28
2019-04-27T13:34:15.944Z,27.72
2019-04-27T13:36:45.794Z,28.68
2019-04-27T13:39:15.802Z,25.72
2019-04-27T13:41:46.328Z,25.72
2019-04-27T13:44:16.068Z,25.76
2019-04-27T13:47:02.873Z,23.75
2019-04-27T13:49:49.904Z,24.37
2019-04-27T13:52:21.009Z,26.18
2019-04-27T13:54:50.385Z,28.83
2019-04-27T13:57:19.775Z,26.44
2019-04-27T13:59:49.235Z,27.97
2019-04-27T14:02:19.234Z,25.29
2019-04-27T14:04:48.975Z,24.18
2019-04-27T14:07:18.217Z,25.50
2019-04-27T14:09:48.643Z,24.76
2019-04-27T14:12:21.188Z,26.32
2019-04-27T14:14:51.066Z,27.63
2019-04-27T14:17:20.577Z,28.30
2019-04-27T14:19:49.987Z,29.11
2019-04-27T14:22:19.505Z,25.58
2019-04-27T14:24:49.054Z,26.78
2019-04-27T14:27:20.037Z,31.69
2019-04-27T14:29:49.410Z,30.63
2019-04-27T14:32:18.931Z,30.98
2019-04-27T14:34:50.343Z,31.81
2019-04-27T14:37:19.483Z,33.54
2019-04-27T14:39:48.863Z,34.27
2019-04-27T14:42:19.165Z,34.56
2019-04-27T14:44:49.068Z,34.48
2019-04-27T14:47:18.887Z,35.04
2019-04-27T14:49:49.148Z,36.72
2019-04-27T14:52:18.944Z,35.76
2019-04-27T14:54:50.895Z,36.00
2019-04-27T14:57:20.419Z,37.39
2019-04-27T14:59:50.058Z,36.20
2019-04-27T15:02:19.440Z,36.43
2019-04-27T15:04:49.800Z,37.14
2019-04-27T15:07:19.341Z,35.84
2019-04-27T15:09:49.686Z,37.84
2019-04-27T15:12:25.728Z,38.39
2019-04-27T15:14:53.258Z,38.47
2019-04-27T15:17:25.576Z,37.91
2019-04-27T15:20:00.380Z,40.21
2019-04-27T15:22:31.108Z,39.72
2019-04-27T15:25:12.536Z,39.79
2019-04-27T15:27:37.472Z,39.80
2019-04-27T15:30:11.537Z,38.65
2019-04-27T15:32:42.036Z,39.19
2019-04-27T15:35:14.151Z,39.51
2019-04-27T15:37:50.992Z,37.04
2019-04-27T15:40:24.745Z,38.86
2019-04-27T15:42:55.764Z,39.36
2019-04-27T15:45:25.155Z,41.01
2019-04-27T15:47:54.990Z,39.05
2019-04-27T15:50:28.495Z,40.38
2019-04-27T15:52:55.694Z,38.64
2019-04-27T15:55:34.432Z,37.46
2019-04-27T15:57:56.311Z,38.32
2019-04-27T16:00:28.850Z,36.44
2019-04-27T16:02:59.369Z,34.66
2019-04-27T16:05:32.307Z,35.79
2019-04-27T16:08:05.968Z,35.42
2019-04-27T16:10:32.665Z,35.05
2019-04-27T16:13:06.826Z,37.62
2019-04-27T16:15:34.128Z,37.12
2019-04-27T16:18:03.692Z,36.74
2019-04-27T16:20:34.272Z,35.71
2019-04-27T16:23:04.915Z,35.58
2019-04-27T16:25:47.862Z,35.31
2019-04-27T16:28:09.797Z,36.42
2019-04-27T16:30:39.041Z,38.40
2019-04-27T16:33:08.761Z,37.86
2019-04-27T16:35:39.579Z,36.32
2019-04-27T16:38:13.076Z,35.97
2019-04-27T16:40:42.593Z,37.48
2019-04-27T16:43:11.971Z,36.14
2019-04-27T16:45:41.361Z,35.71
2019-04-27T16:48:11.309Z,34.59
2019-04-27T16:50:41.135Z,34.56
2019-04-27T16:53:12.608Z,34.03
2019-04-27T16:55:42.009Z,35.89
2019-04-27T16:58:16.017Z,36.31
2019-04-27T17:00:43.456Z,36.31
2019-04-27T17:03:12.848Z,35.42
2019-04-27T17:05:42.411Z,38.14
2019-04-27T17:08:21.596Z,38.30
2019-04-27T17:10:43.533Z,39.23
2019-04-27T17:13:14.724Z,38.59
2019-04-27T17:15:53.563Z,37.29
2019-04-27T17:18:25.490Z,41.22
2019-04-27T17:21:02.694Z,42.16
2019-04-27T17:23:31.429Z,41.79
2019-04-27T17:26:06.280Z,42.33
2019-04-27T17:28:51.475Z,44.17
2019-04-27T17:31:22.573Z,42.33
2019-04-27T17:33:53.591Z,44.59
2019-04-27T17:36:22.997Z,44.85
2019-04-27T17:38:52.396Z,46.00
2019-04-27T17:41:21.982Z,46.56
2019-04-27T17:43:52.360Z,47.92
2019-04-27T17:46:22.074Z,48.46
2019-04-27T17:48:51.499Z,51.99
2019-04-27T17:51:20.888Z,53.13
2019-04-27T17:53:50.285Z,53.66
2019-04-27T17:56:19.671Z,52.46
2019-04-27T17:58:49.121Z,51.73
2019-04-27T18:01:23.407Z,54.83
2019-04-27T18:03:58.417Z,54.35
2019-04-27T18:06:24.518Z,54.45
2019-04-27T18:08:55.026Z,55.21
2019-04-27T18:11:23.071Z,57.46
2019-04-27T18:13:55.927Z,58.27
2019-04-27T18:16:23.881Z,58.94
2019-04-27T18:19:08.016Z,59.73
2019-04-27T18:21:32.075Z,59.59
2019-04-27T18:24:03.094Z,57.54
2019-04-27T18:26:46.176Z,57.83
2019-04-27T18:29:05.418Z,57.01
2019-04-27T18:31:34.949Z,57.71
2019-04-27T18:34:09.906Z,60.28
2019-04-27T18:36:37.924Z,59.52
2019-04-27T18:39:10.448Z,60.46
2019-04-27T18:41:49.313Z,60.35
2019-04-27T18:44:12.342Z,60.69
2019-04-27T18:46:41.762Z,63.02
2019-04-27T18:49:22.620Z,62.92
2019-04-27T18:52:03.696Z,62.64
2019-04-27T18:54:28.835Z,62.71
2019-04-27T18:57:04.156Z,61.68
2019-04-27T18:59:29.375Z,61.30
2019-04-27T19:01:58.769Z,61.26
2019-04-27T19:04:28.225Z,62.83
2019-04-27T19:06:58.490Z,64.17
2019-04-27T19:09:28.771Z,65.26
2019-04-27T19:11:58.153Z,64.90
2019-04-27T19:14:28.290Z,67.00
2019-04-27T19:16:58.810Z,66.32
2019-04-27T19:19:28.229Z,65.42
2019-04-27T19:21:58.950Z,66.28
2019-04-27T19:24:28.443Z,67.57
2019-04-27T19:26:59.473Z,66.01
2019-04-27T19:29:30.566Z,66.30
2019-04-27T19:32:03.930Z,66.01
2019-04-27T19:34:33.375Z,67.84
2019-04-27T19:37:02.767Z,67.41
2019-04-27T19:39:32.225Z,69.10
2019-04-27T19:42:03.861Z,69.07
2019-04-27T19:44:32.704Z,68.01
2019-04-27T19:47:02.105Z,66.39
2019-04-27T19:49:31.915Z,65.93
2019-04-27T19:52:01.321Z,66.98
2019-04-27T19:54:30.953Z,67.70
2019-04-27T19:57:00.347Z,67.47
2019-04-27T19:59:34.205Z,68.47
2019-04-27T20:02:05.505Z,67.40
2019-04-27T20:04:36.537Z,68.97
2019-04-27T20:07:05.995Z,68.83
2019-04-27T20:09:37.144Z,68.90
2019-04-27T20:12:08.180Z,69.67
2019-04-27T20:14:55.517Z,70.07
2019-04-27T20:17:31.263Z,68.74
2019-04-27T20:20:02.149Z,69.88
2019-04-27T20:22:32.359Z,69.16
2019-04-27T20:25:02.124Z,69.43
2019-04-27T20:27:44.982Z,68.92
2019-04-27T20:30:06.315Z,68.92
2019-04-27T20:32:35.247Z,69.25
2019-04-27T20:35:06.889Z,67.80
2019-04-27T20:37:36.329Z,68.63
2019-04-27T20:40:07.945Z,69.67
2019-04-27T20:42:37.318Z,70.17
2019-04-27T20:45:07.174Z,69.58
2019-04-27T20:47:37.276Z,69.33
2019-04-27T20:50:07.185Z,67.90
2019-04-27T20:52:41.024Z,66.08
2019-04-27T20:55:11.498Z,66.80
2019-04-27T20:57:41.858Z,67.34
2019-04-27T21:00:13.842Z,63.60
2019-04-27T21:02:55.605Z,64.04
2019-04-27T21:05:41.458Z,64.34
2019-04-27T21:08:12.211Z,66.61
2019-04-27T21:10:42.155Z,68.43
2019-04-27T21:13:12.061Z,68.69
2019-04-27T21:15:42.092Z,70.14
2019-04-27T21:18:12.189Z,72.06
2019-04-27T21:20:42.136Z,70.22
2019-04-27T21:23:12.254Z,69.98
2019-04-27T21:25:42.332Z,69.27
2019-04-27T21:28:18.089Z,70.84
2019-04-27T21:30:44.067Z,70.05
2019-04-27T21:33:13.515Z,70.90
2019-04-27T21:35:42.890Z,70.05
2019-04-27T21:38:12.449Z,69.34
2019-04-27T21:40:42.424Z,70.34
2019-04-27T21:43:14.623Z,71.68
2019-04-27T21:45:44.003Z,71.03
2019-04-27T21:48:13.393Z,71.12
2019-04-27T21:50:42.762Z,70.72
2019-04-27T21:56:21.087Z,74.56
2019-04-27T21:58:51.194Z,73.85
2019-04-27T22:01:23.020Z,73.34
2019-04-27T22:03:52.925Z,73.08
2019-04-27T22:06:22.599Z,73.26
2019-04-27T22:08:53.122Z,74.21
2019-04-27T22:11:22.737Z,75.13
2019-04-27T22:13:52.178Z,76.58
2019-04-27T22:16:21.859Z,74.91
2019-04-27T22:18:52.199Z,73.05
2019-04-27T22:21:21.845Z,74.80
2019-04-27T22:23:52.778Z,73.04
2019-04-27T22:26:22.168Z,73.93
2019-04-27T22:28:52.185Z,74.66
2019-04-27T22:31:22.679Z,71.39
2019-04-27T22:33:54.515Z,72.45
2019-04-27T22:36:23.282Z,74.75
2019-04-27T22:38:54.235Z,76.25
2019-04-27T22:41:41.694Z,73.44
2019-04-27T22:44:29.204Z,73.80
2019-04-27T22:46:58.810Z,74.43
2019-04-27T22:49:31.190Z,75.54
2019-04-27T22:52:01.561Z,75.49
2019-04-27T22:54:31.921Z,74.81
2019-04-27T22:57:03.042Z,75.29
2019-04-27T22:59:45.977Z,75.85
2019-04-27T23:02:17.065Z,75.41
2019-04-27T23:04:49.124Z,75.12
2019-04-27T23:07:21.153Z,75.60
2019-04-27T23:09:51.645Z,75.13
2019-04-27T23:12:22.971Z,75.06
2019-04-27T23:14:52.470Z,75.59
2019-04-27T23:17:41.497Z,75.05
2019-04-27T23:20:11.676Z,76.61
2019-04-27T23:22:41.107Z,74.74
2019-04-27T23:25:11.269Z,74.60
2019-04-27T23:27:41.678Z,73.61
2019-04-27T23:30:11.442Z,75.52
2019-04-27T23:32:48.151Z,74.68
2019-04-27T23:35:17.532Z,75.49
2019-04-27T23:37:47.154Z,75.83
2019-04-27T23:40:17.674Z,75.95
2019-04-27T23:42:47.610Z,74.68
2019-04-27T23:45:18.149Z,77.25
2019-04-27T23:47:48.287Z,77.17
2019-04-27T23:50:18.393Z,75.77
2019-04-27T23:52:59.241Z,74.34
2019-04-27T23:55:36.431Z,74.48
2019-04-27T23:58:05.802Z,74.77
